createdAt,value
2019-02-28T00:00:11.184Z,9.03
2019-02-28T00:02:37.354Z,9.27
2019-02-28T00:05:06.125Z,12.77
2019-02-28T00:07:41.535Z,11.67
2019-02-28T00:10:16.977Z,7.77
2019-02-28T00:12:45.205Z,7.43
2019-02-28T00:15:11.506Z,9.73
2019-02-28T00:17:42.570Z,11.13
2019-02-28T00:20:07.363Z,8.23
2019-02-28T00:22:33.535Z,11.40
2019-02-28T00:25:01.097Z,12.10
2019-02-28T00:27:27.820Z,14.00
2019-02-28T00:29:54.007Z,14.80
2019-02-28T00:32:21.437Z,14.33
2019-02-28T00:34:51.079Z,12.47
2019-02-28T00:37:20.024Z,10.70
2019-02-28T00:39:46.209Z,8.97
2019-02-28T00:42:17.373Z,7.27
2019-02-28T00:44:40.970Z,9.93
2019-02-28T00:47:07.147Z,9.77
2019-02-28T00:49:51.986Z,10.23
2019-02-28T00:52:18.159Z,11.03
2019-02-28T00:54:44.566Z,12.03
2019-02-28T00:57:10.838Z,8.57
2019-02-28T00:59:37.014Z,10.73
2019-02-28T01:02:06.075Z,10.53
2019-02-28T01:04:32.332Z,12.40
2019-02-28T01:06:58.504Z,10.97
2019-02-28T01:09:27.078Z,10.93
2019-02-28T01:11:52.933Z,8.27
2019-02-28T01:14:19.172Z,14.20
2019-02-28T01:16:45.407Z,13.73
2019-02-28T01:19:11.593Z,10.93
2019-02-28T01:21:40.324Z,10.60
2019-02-28T01:24:06.591Z,11.13
2019-02-28T01:26:32.783Z,14.80
2019-02-28T01:29:01.889Z,11.57
2019-02-28T01:31:27.368Z,9.83
2019-02-28T01:33:58.735Z,14.97
2019-02-28T01:36:24.314Z,15.60
2019-02-28T01:38:50.577Z,10.47
2019-02-28T01:41:16.786Z,16.17
2019-02-28T01:43:42.973Z,15.67
2019-02-28T01:46:09.168Z,9.97
2019-02-28T01:48:35.346Z,12.50
2019-02-28T01:51:01.768Z,16.63
2019-02-28T01:53:28.050Z,14.23
2019-02-28T01:55:54.233Z,11.50
2019-02-28T01:58:20.494Z,16.93
2019-02-28T02:00:46.676Z,13.63
2019-02-28T02:03:12.886Z,7.27
2019-02-28T02:05:51.674Z,15.03
2019-02-28T02:08:18.708Z,18.47
2019-02-28T02:10:44.905Z,18.73
2019-02-28T02:13:11.104Z,16.27
2019-02-28T02:15:37.294Z,14.07
2019-02-28T02:18:06.330Z,14.10
2019-02-28T02:20:34.520Z,10.60
2019-02-28T02:23:00.686Z,11.87
2019-02-28T02:25:26.850Z,15.00
2019-02-28T02:27:53.984Z,16.07
2019-02-28T02:30:21.998Z,14.73
2019-02-28T02:32:48.302Z,9.17
2019-02-28T02:35:17.251Z,14.17
2019-02-28T02:37:43.443Z,14.33
2019-02-28T02:40:12.730Z,14.37
2019-02-28T02:42:38.907Z,14.20
2019-02-28T02:45:07.296Z,9.27
2019-02-28T02:47:36.343Z,12.73
2019-02-28T02:50:05.120Z,15.90
2019-02-28T02:52:31.365Z,14.43
2019-02-28T02:54:57.581Z,11.03
2019-02-28T02:57:23.764Z,15.83
2019-02-28T03:00:15.081Z,13.80
2019-02-28T03:02:41.620Z,12.83
2019-02-28T03:05:08.177Z,13.77
2019-02-28T03:07:34.487Z,13.73
2019-02-28T03:10:06.223Z,20.73
2019-02-28T03:12:32.992Z,15.00
2019-02-28T03:14:59.303Z,8.47
2019-02-28T03:17:25.515Z,11.23
2019-02-28T03:19:51.752Z,11.00
2019-02-28T03:22:17.926Z,15.93
2019-02-28T03:24:51.127Z,21.50
2019-02-28T03:27:20.959Z,15.47
2019-02-28T03:29:47.258Z,10.80
2019-02-28T03:32:13.542Z,15.90
2019-02-28T03:34:39.788Z,14.23
2019-02-28T03:37:05.993Z,13.73
2019-02-28T03:39:38.587Z,14.80
2019-02-28T03:42:05.042Z,12.17
2019-02-28T03:44:31.209Z,11.50
2019-02-28T03:46:57.427Z,9.23
2019-02-28T03:49:23.604Z,12.90
2019-02-28T03:51:52.946Z,15.10
2019-02-28T03:54:19.235Z,17.80
2019-02-28T03:56:52.715Z,8.63
2019-02-28T03:59:18.796Z,14.03
2019-02-28T04:01:46.427Z,16.63
2019-02-28T04:04:12.853Z,14.60
2019-02-28T04:06:40.845Z,12.27
2019-02-28T04:09:08.459Z,15.40
2019-02-28T04:11:35.328Z,15.07
2019-02-28T04:14:01.486Z,13.50
2019-02-28T04:16:27.678Z,13.00
2019-02-28T04:18:53.861Z,12.07
2019-02-28T04:21:22.846Z,9.30
2019-02-28T04:23:49.133Z,9.13
2019-02-28T04:26:15.324Z,12.87
2019-02-28T04:28:41.510Z,13.23
2019-02-28T04:31:07.769Z,12.67
2019-02-28T04:33:37.687Z,11.87
2019-02-28T04:36:02.082Z,9.27
2019-02-28T04:38:28.347Z,16.10
2019-02-28T04:40:54.546Z,10.43
2019-02-28T04:43:20.762Z,14.33
2019-02-28T04:45:46.912Z,11.17
2019-02-28T04:48:13.992Z,10.57
2019-02-28T04:50:40.885Z,14.23
2019-02-28T04:53:07.211Z,12.27
2019-02-28T04:55:34.243Z,13.00
2019-02-28T04:58:01.684Z,11.10
2019-02-28T05:00:27.902Z,13.17
2019-02-28T05:02:55.020Z,12.20
2019-02-28T05:05:21.319Z,15.30
2019-02-28T05:07:47.524Z,16.47
2019-02-28T05:10:13.787Z,12.50
2019-02-28T05:12:42.832Z,12.73
2019-02-28T05:15:13.132Z,17.20
2019-02-28T05:17:39.326Z,12.33
2019-02-28T05:20:10.750Z,13.33
2019-02-28T05:22:35.556Z,7.03
2019-02-28T05:25:20.015Z,11.13
2019-02-28T05:27:46.255Z,10.10
2019-02-28T05:30:18.119Z,20.40
2019-02-28T05:32:53.803Z,14.07
2019-02-28T05:35:25.556Z,16.17
2019-02-28T05:37:51.311Z,16.03
2019-02-28T05:40:17.470Z,10.60
2019-02-28T05:42:43.671Z,11.30
2019-02-28T05:45:11.403Z,13.50
2019-02-28T05:47:46.394Z,9.60
2019-02-28T05:50:08.678Z,11.17
2019-02-28T05:52:34.852Z,7.93
2019-02-28T05:55:01.027Z,15.60
2019-02-28T05:57:27.196Z,6.93
2019-02-28T05:59:53.446Z,14.03
2019-02-28T06:02:22.349Z,8.07
2019-02-28T06:04:48.151Z,13.00
2019-02-28T06:07:14.456Z,11.67
2019-02-28T06:09:45.563Z,15.17
2019-02-28T06:12:11.547Z,6.60
2019-02-28T06:14:37.744Z,12.23
2019-02-28T06:17:04.004Z,10.83
2019-02-28T06:19:30.488Z,10.73
2019-02-28T06:21:59.437Z,13.40
2019-02-28T06:24:25.084Z,8.47
2019-02-28T06:26:51.372Z,16.37
2019-02-28T06:29:17.654Z,14.03
2019-02-28T06:31:45.469Z,16.80
2019-02-28T06:34:24.148Z,13.97
2019-02-28T06:36:50.433Z,12.60
2019-02-28T06:39:17.559Z,6.00
2019-02-28T06:41:43.903Z,15.87
2019-02-28T06:44:27.033Z,12.60
2019-02-28T06:46:53.970Z,11.07
2019-02-28T06:49:20.357Z,10.03
2019-02-28T06:51:48.417Z,13.83
2019-02-28T06:54:17.699Z,12.37
2019-02-28T06:56:50.216Z,9.37
2019-02-28T06:59:16.445Z,10.73
2019-02-28T07:01:42.659Z,11.40
2019-02-28T07:04:11.519Z,7.10
2019-02-28T07:06:37.090Z,11.77
2019-02-28T07:09:04.913Z,10.27
2019-02-28T07:11:31.116Z,11.67
2019-02-28T07:13:57.303Z,13.83
2019-02-28T07:16:23.652Z,14.20
2019-02-28T07:18:52.951Z,16.43
2019-02-28T07:21:18.097Z,14.80
2019-02-28T07:23:44.325Z,9.93
2019-02-28T07:26:10.521Z,15.03
2019-02-28T07:28:37.704Z,19.33
2019-02-28T07:31:07.065Z,14.87
2019-02-28T07:33:36.271Z,10.10
2019-02-28T07:36:05.598Z,12.13
2019-02-28T07:38:33.606Z,10.50
2019-02-28T07:40:59.811Z,11.50
2019-02-28T07:43:28.847Z,15.43
2019-02-28T07:45:55.025Z,14.90
2019-02-28T07:48:26.811Z,11.03
2019-02-28T07:50:52.110Z,17.13
2019-02-28T07:53:18.308Z,12.83
2019-02-28T07:55:44.498Z,12.90
2019-02-28T07:58:10.688Z,14.20
2019-02-28T08:00:37.085Z,10.70
2019-02-28T08:03:03.345Z,16.53
2019-02-28T08:05:31.004Z,6.30
2019-02-28T08:08:15.975Z,14.10
2019-02-28T08:10:42.305Z,13.10
2019-02-28T08:13:11.412Z,9.47
2019-02-28T08:15:37.632Z,14.97
2019-02-28T08:18:06.748Z,13.30
2019-02-28T08:20:34.008Z,16.73
2019-02-28T08:23:04.831Z,20.23
2019-02-28T08:25:31.083Z,11.37
2019-02-28T08:27:59.798Z,17.03
2019-02-28T08:30:32.886Z,13.23
2019-02-28T08:32:59.084Z,13.90
2019-02-28T08:35:25.386Z,15.60
2019-02-28T08:37:55.693Z,27.77
2019-02-28T08:40:21.188Z,18.37
2019-02-28T08:42:49.721Z,20.43
2019-02-28T08:45:15.878Z,21.20
2019-02-28T08:47:44.941Z,27.03
2019-02-28T08:50:19.473Z,19.73
2019-02-28T08:52:56.633Z,16.40
2019-02-28T08:55:28.767Z,30.37
2019-02-28T08:57:54.994Z,14.83
2019-02-28T09:00:20.555Z,22.37
2019-02-28T09:02:52.218Z,23.30
2019-02-28T09:05:17.821Z,18.97
2019-02-28T09:07:50.951Z,22.77
2019-02-28T09:10:28.215Z,22.50
2019-02-28T09:12:54.526Z,15.37
2019-02-28T09:15:21.021Z,16.73
2019-02-28T09:17:50.088Z,23.77
2019-02-28T09:20:16.591Z,20.60
2019-02-28T09:22:43.187Z,20.37
2019-02-28T09:25:21.432Z,20.27
2019-02-28T09:28:02.447Z,20.23
2019-02-28T09:30:41.153Z,16.10
2019-02-28T09:33:23.259Z,19.70
2019-02-28T09:35:48.099Z,16.07
2019-02-28T09:38:14.348Z,21.80
2019-02-28T09:40:41.239Z,20.70
2019-02-28T09:43:07.863Z,26.33
2019-02-28T09:45:34.172Z,24.33
2019-02-28T09:48:03.587Z,18.67
2019-02-28T09:50:29.988Z,19.97
2019-02-28T09:52:56.194Z,25.67
2019-02-28T09:55:22.455Z,20.63
2019-02-28T09:57:53.724Z,24.57
2019-02-28T10:00:18.582Z,23.93
2019-02-28T10:02:45.105Z,25.67
2019-02-28T10:05:14.359Z,21.77
2019-02-28T10:07:40.902Z,22.90
2019-02-28T10:10:23.890Z,17.93
2019-02-28T10:12:52.947Z,17.93
2019-02-28T10:15:20.486Z,22.53
2019-02-28T10:17:46.660Z,23.33
2019-02-28T10:20:16.482Z,21.97
2019-02-28T10:22:44.402Z,28.87
2019-02-28T10:25:12.411Z,29.70
2019-02-28T10:28:01.612Z,15.30
2019-02-28T10:30:32.290Z,20.23
2019-02-28T10:32:56.682Z,21.17
2019-02-28T10:35:22.890Z,24.63
2019-02-28T10:37:49.444Z,22.23
2019-02-28T10:40:23.351Z,20.30
2019-02-28T10:42:51.624Z,17.53
2019-02-28T10:45:18.310Z,23.67
2019-02-28T10:47:47.090Z,27.27
2019-02-28T10:50:19.884Z,21.37
2019-02-28T10:52:48.703Z,22.43
2019-02-28T10:55:15.783Z,22.20
2019-02-28T10:57:42.112Z,18.70
2019-02-28T11:00:14.253Z,24.70
2019-02-28T11:02:41.365Z,22.10
2019-02-28T11:05:15.344Z,20.93
2019-02-28T11:07:42.203Z,21.77
2019-02-28T11:10:08.904Z,21.50
2019-02-28T11:12:37.364Z,21.23
2019-02-28T11:15:23.010Z,20.90
2019-02-28T11:17:49.658Z,20.67
2019-02-28T11:20:22.058Z,24.57
2019-02-28T11:22:46.792Z,22.90
2019-02-28T11:25:15.580Z,17.13
2019-02-28T11:27:53.689Z,22.43
2019-02-28T11:30:29.596Z,20.33
2019-02-28T11:33:03.324Z,27.40
2019-02-28T11:35:27.803Z,22.30
2019-02-28T11:37:54.215Z,22.43
2019-02-28T11:40:23.592Z,22.27
2019-02-28T11:42:52.365Z,21.63
2019-02-28T11:45:27.894Z,21.70
2019-02-28T11:47:56.137Z,20.60
2019-02-28T11:50:42.448Z,23.30
2019-02-28T11:53:09.273Z,21.00
2019-02-28T11:55:38.572Z,24.37
2019-02-28T11:58:07.825Z,20.53
2019-02-28T12:00:38.317Z,18.60
2019-02-28T12:03:07.658Z,24.17
2019-02-28T12:05:50.678Z,20.73
2019-02-28T12:08:17.671Z,26.47
2019-02-28T12:10:43.901Z,26.83
2019-02-28T12:13:10.294Z,22.53
2019-02-28T12:15:39.272Z,21.83
2019-02-28T12:18:05.886Z,27.73
2019-02-28T12:20:32.056Z,20.43
2019-02-28T12:22:58.331Z,25.87
2019-02-28T12:25:27.618Z,22.63
2019-02-28T12:28:06.509Z,25.90
2019-02-28T12:30:33.577Z,24.70
2019-02-28T12:33:00.090Z,23.77
2019-02-28T12:35:37.274Z,24.27
2019-02-28T12:38:03.282Z,30.33
2019-02-28T12:40:34.347Z,26.60
2019-02-28T12:43:05.292Z,24.43
2019-02-28T12:45:49.364Z,23.87
2019-02-28T12:48:30.752Z,17.90
2019-02-28T12:50:57.362Z,29.27
2019-02-28T12:53:25.268Z,29.53
2019-02-28T12:56:07.327Z,22.03
2019-02-28T12:58:38.845Z,27.17
2019-02-28T13:01:20.574Z,23.13
2019-02-28T13:03:46.842Z,20.40
2019-02-28T13:06:13.198Z,21.43
2019-02-28T13:08:42.501Z,22.60
2019-02-28T13:11:08.829Z,33.00
2019-02-28T13:13:37.979Z,27.23
2019-02-28T13:16:04.317Z,24.80
2019-02-28T13:18:33.464Z,28.90
2019-02-28T13:21:06.157Z,33.90
2019-02-28T13:23:34.071Z,27.98
2019-02-28T13:26:00.380Z,29.40
2019-02-28T13:28:26.562Z,27.80
2019-02-28T13:30:52.939Z,27.93
2019-02-28T13:33:19.295Z,31.00
2019-02-28T13:35:47.416Z,33.40
2019-02-28T13:38:17.705Z,30.25
2019-02-28T13:40:44.841Z,51.50
2019-02-28T13:43:10.014Z,29.15
2019-02-28T13:45:36.318Z,28.52
2019-02-28T13:48:03.567Z,25.77
2019-02-28T13:50:35.687Z,26.25
2019-02-28T13:53:23.265Z,28.62
2019-02-28T13:55:52.941Z,27.07
2019-02-28T13:58:17.610Z,25.17
2019-02-28T14:00:45.962Z,32.50
2019-02-28T14:03:16.993Z,27.82
2019-02-28T14:05:43.318Z,29.32
2019-02-28T14:08:21.961Z,27.20
2019-02-28T14:10:49.122Z,32.05
2019-02-28T14:13:16.320Z,30.23
2019-02-28T14:15:52.497Z,31.65
2019-02-28T14:18:31.147Z,27.22
2019-02-28T14:20:59.492Z,34.53
2019-02-28T14:23:25.704Z,30.57
2019-02-28T14:25:51.964Z,34.90
2019-02-28T14:28:20.873Z,31.45
2019-02-28T14:30:47.285Z,31.80
2019-02-28T14:33:16.202Z,38.17
2019-02-28T14:35:47.204Z,31.73
2019-02-28T14:38:32.796Z,33.48
2019-02-28T14:41:00.043Z,32.08
2019-02-28T14:43:29.039Z,34.53
2019-02-28T14:45:55.275Z,37.35
2019-02-28T14:48:21.504Z,33.90
2019-02-28T14:50:50.546Z,31.27
2019-02-28T14:53:18.354Z,39.92
2019-02-28T14:56:04.375Z,38.10
2019-02-28T14:58:46.176Z,33.80
2019-02-28T15:01:16.840Z,34.20
2019-02-28T15:03:43.755Z,35.85
2019-02-28T15:06:11.217Z,39.38
2019-02-28T15:08:55.960Z,30.37
2019-02-28T15:11:22.360Z,37.55
2019-02-28T15:14:08.756Z,35.38
2019-02-28T15:16:35.456Z,32.08
2019-02-28T15:19:01.640Z,36.30
2019-02-28T15:21:27.846Z,39.60
2019-02-28T15:23:54.029Z,36.88
2019-02-28T15:26:20.252Z,32.35
2019-02-28T15:28:48.613Z,36.45
2019-02-28T15:31:15.044Z,34.87
2019-02-28T15:33:44.188Z,35.08
2019-02-28T15:36:16.923Z,35.63
2019-02-28T15:38:44.481Z,36.50
2019-02-28T15:41:11.393Z,42.90
2019-02-28T15:43:37.587Z,37.20
2019-02-28T15:46:04.098Z,34.07
2019-02-28T15:48:35.219Z,33.73
2019-02-28T15:51:03.396Z,30.87
2019-02-28T15:53:29.819Z,35.23
2019-02-28T15:55:56.022Z,42.93
2019-02-28T15:58:24.923Z,42.70
2019-02-28T16:00:53.770Z,39.67
2019-02-28T16:03:37.744Z,34.70
2019-02-28T16:06:03.922Z,35.47
2019-02-28T16:08:30.260Z,36.47
2019-02-28T16:10:56.526Z,39.17
2019-02-28T16:13:25.864Z,34.17
2019-02-28T16:15:51.243Z,41.10
2019-02-28T16:18:17.476Z,37.97
2019-02-28T16:20:43.739Z,46.60
2019-02-28T16:23:10.006Z,47.53
2019-02-28T16:25:37.377Z,32.43
2019-02-28T16:28:07.683Z,44.40
2019-02-28T16:30:35.561Z,32.80
2019-02-28T16:33:04.740Z,41.80
2019-02-28T16:35:33.510Z,32.43
2019-02-28T16:37:59.740Z,35.97
2019-02-28T16:40:28.919Z,33.63
2019-02-28T16:42:55.140Z,33.60
2019-02-28T16:45:28.034Z,32.10
2019-02-28T16:47:55.625Z,31.03
2019-02-28T16:50:22.593Z,26.30
2019-02-28T16:52:48.777Z,43.60
2019-02-28T16:55:14.954Z,28.30
2019-02-28T16:57:43.544Z,31.87
2019-02-28T17:00:13.000Z,32.70
2019-02-28T17:02:40.611Z,27.27
2019-02-28T17:05:27.912Z,33.23
2019-02-28T17:07:54.118Z,29.97
2019-02-28T17:10:24.973Z,32.17
2019-02-28T17:12:53.188Z,36.80
2019-02-28T17:15:23.052Z,33.00
2019-02-28T17:17:51.419Z,30.53
2019-02-28T17:20:17.596Z,39.63
2019-02-28T17:22:46.519Z,40.60
2019-02-28T17:25:14.122Z,32.13
2019-02-28T17:27:51.372Z,25.80
2019-02-28T17:30:37.764Z,26.57
2019-02-28T17:33:05.786Z,35.73
2019-02-28T17:35:38.539Z,33.33
2019-02-28T17:38:05.046Z,27.90
2019-02-28T17:40:31.217Z,31.17
2019-02-28T17:42:57.413Z,30.47
2019-02-28T17:45:24.414Z,30.93
2019-02-28T17:47:54.513Z,31.40
2019-02-28T17:50:54.211Z,32.03
2019-02-28T17:53:36.100Z,33.33
2019-02-28T17:56:23.015Z,25.37
2019-02-28T17:59:05.306Z,32.20
2019-02-28T18:02:01.425Z,26.87
2019-02-28T18:04:52.185Z,34.53
2019-02-28T18:07:31.539Z,34.77
2019-02-28T18:10:04.285Z,29.37
2019-02-28T18:12:44.229Z,27.23
2019-02-28T18:15:15.788Z,26.40
2019-02-28T18:18:15.728Z,28.47
2019-02-28T18:21:05.780Z,30.93
2019-02-28T18:23:45.068Z,22.47
2019-02-28T18:26:38.740Z,27.33
2019-02-28T18:29:35.151Z,31.70
2019-02-28T18:32:01.446Z,24.60
2019-02-28T18:34:30.914Z,33.60
2019-02-28T18:37:15.808Z,28.10
2019-02-28T18:39:48.061Z,30.83
2019-02-28T18:42:15.891Z,26.03
2019-02-28T18:44:42.092Z,27.93
2019-02-28T18:47:08.426Z,29.37
2019-02-28T18:49:34.622Z,26.83
2019-02-28T18:52:03.570Z,30.40
2019-02-28T18:54:29.735Z,35.10
2019-02-28T18:56:55.920Z,29.67
2019-02-28T18:59:22.190Z,27.93
2019-02-28T19:01:48.349Z,30.13
2019-02-28T19:04:14.647Z,31.80
2019-02-28T19:06:40.826Z,24.37
2019-02-28T19:09:20.771Z,28.40
2019-02-28T19:11:47.162Z,32.17
2019-02-28T19:14:13.350Z,35.73
2019-02-28T19:16:42.512Z,30.73
2019-02-28T19:19:08.732Z,39.70
2019-02-28T19:21:34.917Z,28.20
2019-02-28T19:24:03.790Z,27.33
2019-02-28T19:26:30.008Z,27.40
2019-02-28T19:28:56.272Z,27.73
2019-02-28T19:31:22.439Z,25.00
2019-02-28T19:33:48.659Z,31.77
2019-02-28T19:36:14.856Z,24.37
2019-02-28T19:38:41.042Z,33.77
2019-02-28T19:41:07.269Z,30.13
2019-02-28T19:43:33.454Z,29.43
2019-02-28T19:45:59.751Z,29.40
2019-02-28T19:48:25.924Z,24.57
2019-02-28T19:50:52.130Z,26.13
2019-02-28T19:53:18.380Z,26.40
2019-02-28T19:55:47.415Z,27.63
2019-02-28T19:58:16.757Z,28.90
2019-02-28T20:01:01.374Z,26.00
2019-02-28T20:03:27.553Z,27.27
2019-02-28T20:05:53.956Z,27.10
2019-02-28T20:08:39.125Z,24.23
2019-02-28T20:11:08.126Z,24.80
2019-02-28T20:13:34.348Z,25.47
2019-02-28T20:16:00.690Z,24.50
2019-02-28T20:18:26.921Z,26.80
2019-02-28T20:20:53.202Z,24.43
2019-02-28T20:23:19.500Z,24.77
2019-02-28T20:26:04.851Z,28.50
2019-02-28T20:28:40.306Z,16.77
2019-02-28T20:31:06.694Z,28.80
2019-02-28T20:33:32.879Z,19.13
2019-02-28T20:35:59.064Z,16.67
2019-02-28T20:38:25.255Z,13.03
2019-02-28T20:40:52.428Z,11.37
2019-02-28T20:43:18.814Z,11.80
2019-02-28T20:45:57.611Z,13.23
2019-02-28T20:48:23.872Z,12.90
2019-02-28T20:50:51.859Z,12.20
2019-02-28T20:53:18.156Z,12.03
2019-02-28T20:55:44.452Z,12.27
2019-02-28T20:58:10.638Z,11.30
2019-02-28T21:00:36.830Z,6.53
2019-02-28T21:03:03.204Z,11.47
2019-02-28T21:05:29.392Z,8.60
2019-02-28T21:07:58.203Z,10.37
2019-02-28T21:10:25.045Z,10.13
2019-02-28T21:12:57.398Z,12.33
2019-02-28T21:15:24.793Z,10.77
2019-02-28T21:17:54.372Z,8.70
2019-02-28T21:20:23.551Z,10.50
2019-02-28T21:23:02.234Z,12.17
2019-02-28T21:25:28.489Z,9.40
2019-02-28T21:27:54.833Z,8.90
2019-02-28T21:30:23.529Z,9.30
2019-02-28T21:33:02.031Z,8.07
2019-02-28T21:35:28.493Z,9.53
2019-02-28T21:37:54.733Z,13.97
2019-02-28T21:40:21.519Z,9.93
2019-02-28T21:42:47.747Z,10.10
2019-02-28T21:45:24.569Z,8.60
2019-02-28T21:48:06.159Z,10.40
2019-02-28T21:50:32.382Z,7.27
2019-02-28T21:52:58.562Z,7.90
2019-02-28T21:55:24.754Z,8.13
2019-02-28T21:57:51.124Z,9.10
2019-02-28T22:00:26.218Z,7.07
2019-02-28T22:02:52.387Z,8.10
2019-02-28T22:05:18.834Z,7.93
2019-02-28T22:07:45.023Z,5.30
2019-02-28T22:10:12.839Z,13.13
2019-02-28T22:12:39.111Z,6.87
2019-02-28T22:15:19.894Z,5.40
2019-02-28T22:17:46.084Z,8.10
2019-02-28T22:20:13.099Z,4.10
2019-02-28T22:22:39.277Z,7.13
2019-02-28T22:25:11.450Z,5.90
2019-02-28T22:27:37.690Z,11.50
2019-02-28T22:30:30.287Z,7.30
2019-02-28T22:32:58.386Z,7.53
2019-02-28T22:35:26.530Z,3.73
2019-02-28T22:37:52.971Z,6.23
2019-02-28T22:40:19.351Z,7.23
2019-02-28T22:43:03.950Z,7.97
2019-02-28T22:45:30.188Z,8.53
2019-02-28T22:47:56.368Z,6.50
2019-02-28T22:50:22.573Z,6.10
2019-02-28T22:52:51.941Z,3.80
2019-02-28T22:55:18.182Z,5.10
2019-02-28T22:57:44.458Z,4.70
2019-02-28T23:00:14.476Z,7.50
2019-02-28T23:02:40.669Z,7.60
2019-02-28T23:05:06.875Z,7.70
2019-02-28T23:07:33.066Z,6.13
2019-02-28T23:09:59.241Z,8.20
2019-02-28T23:12:25.442Z,7.70
2019-02-28T23:14:51.664Z,6.50
2019-02-28T23:17:18.866Z,5.07
2019-02-28T23:19:45.079Z,11.33
2019-02-28T23:22:11.262Z,6.43
2019-02-28T23:24:37.467Z,7.33
2019-02-28T23:27:08.688Z,5.30
2019-02-28T23:29:44.774Z,8.93
2019-02-28T23:32:28.975Z,6.13
2019-02-28T23:34:55.151Z,6.00
2019-02-28T23:37:21.393Z,6.03
2019-02-28T23:39:47.630Z,8.07
2019-02-28T23:42:13.924Z,8.87
2019-02-28T23:44:40.119Z,7.43
2019-02-28T23:47:06.508Z,6.30
2019-02-28T23:49:32.769Z,10.43
2019-02-28T23:51:58.970Z,8.87
2019-02-28T23:54:25.146Z,10.00
2019-02-28T23:56:51.439Z,9.57
2019-02-28T23:59:17.639Z,8.30
